sensor_id;sensor_type;location;lat;lon;timestamp;pressure;altitude;pressure_sealevel;temperature;humidity
4972;BME280;2501;51.214;6.768;2022-10-23T00:01:33;101185.88;;;13.13;100.00
4972;BME280;2501;51.214;6.768;2022-10-23T00:04:07;101185.84;;;13.04;100.00
4972;BME280;2501;51.214;6.768;2022-10-23T00:06:42;101173.56;;;13.06;100.00
4972;BME280;2501;51.214;6.768;2022-10-23T00:09:12;101189.31;;;13.00;100.00
4972;BME280;2501;51.214;6.768;2022-10-23T00:11:41;101185.00;;;13.12;100.00
4972;BME280;2501;51.214;6.768;2022-10-23T00:14:15;101176.19;;;13.09;100.00
4972;BME280;2501;51.214;6.768;2022-10-23T00:16:44;101170.06;;;13.08;100.00
4972;BME280;2501;51.214;6.768;2022-10-23T00:19:13;101170.97;;;13.16;100.00
4972;BME280;2501;51.214;6.768;2022-10-23T00:21:41;101165.63;;;13.01;100.00
4972;BME280;2501;51.214;6.768;2022-10-23T00:24:10;101165.69;;;13.12;100.00
4972;BME280;2501;51.214;6.768;2022-10-23T00:26:38;101169.16;;;13.02;100.00
4972;BME280;2501;51.214;6.768;2022-10-23T00:29:08;101175.25;;;12.87;100.00
4972;BME280;2501;51.214;6.768;2022-10-23T00:31:39;101176.13;;;12.87;100.00
4972;BME280;2501;51.214;6.768;2022-10-23T00:34:08;101175.28;;;12.99;100.00
4972;BME280;2501;51.214;6.768;2022-10-23T00:36:36;101167.38;;;12.92;100.00
4972;BME280;2501;51.214;6.768;2022-10-23T00:39:05;101172.63;;;12.90;100.00
4972;BME280;2501;51.214;6.768;2022-10-23T00:41:34;101172.59;;;12.82;100.00
4972;BME280;2501;51.214;6.768;2022-10-23T00:46:58;101177.03;;;12.91;100.00
4972;BME280;2501;51.214;6.768;2022-10-23T00:49:27;101165.66;;;13.10;100.00
4972;BME280;2501;51.214;6.768;2022-10-23T00:51:58;101160.38;;;12.98;100.00
4972;BME280;2501;51.214;6.768;2022-10-23T00:54:32;101153.28;;;12.83;100.00
4972;BME280;2501;51.214;6.768;2022-10-23T00:57:03;101160.31;;;12.84;100.00
4972;BME280;2501;51.214;6.768;2022-10-23T00:59:32;101148.06;;;12.91;100.00
4972;BME280;2501;51.214;6.768;2022-10-23T01:02:04;101152.44;;;12.78;100.00
4972;BME280;2501;51.214;6.768;2022-10-23T01:04:33;101151.53;;;12.78;100.00
4972;BME280;2501;51.214;6.768;2022-10-23T01:07:05;101156.81;;;12.87;100.00
4972;BME280;2501;51.214;6.768;2022-10-23T01:09:43;101157.69;;;12.84;100.00
4972;BME280;2501;51.214;6.768;2022-10-23T01:12:22;101145.41;;;12.76;100.00
4972;BME280;2501;51.214;6.768;2022-10-23T01:14:59;101152.41;;;12.77;100.00
4972;BME280;2501;51.214;6.768;2022-10-23T01:17:34;101150.69;;;12.80;100.00
4972;BME280;2501;51.214;6.768;2022-10-23T01:20:11;101156.81;;;12.78;100.00
4972;BME280;2501;51.214;6.768;2022-10-23T01:22:56;101155.06;;;12.83;100.00
4972;BME280;2501;51.214;6.768;2022-10-23T01:25:39;101153.28;;;12.76;100.00
4972;BME280;2501;51.214;6.768;2022-10-23T01:28:19;101148.06;;;12.80;100.00
4972;BME280;2501;51.214;6.768;2022-10-23T01:30:49;101152.41;;;12.75;100.00
4972;BME280;2501;51.214;6.768;2022-10-23T01:33:23;101141.88;;;12.74;100.00
4972;BME280;2501;51.214;6.768;2022-10-23T01:35:58;101137.47;;;12.73;100.00
4972;BME280;2501;51.214;6.768;2022-10-23T01:38:37;101140.16;;;12.79;100.00
4972;BME280;2501;51.214;6.768;2022-10-23T01:41:10;101129.59;;;12.76;100.00
4972;BME280;2501;51.214;6.768;2022-10-23T01:43:44;101120.81;;;12.72;100.00
4972;BME280;2501;51.214;6.768;2022-10-23T01:46:16;101111.16;;;12.73;100.00
4972;BME280;2501;51.214;6.768;2022-10-23T01:48:48;101110.28;;;12.74;100.00
4972;BME280;2501;51.214;6.768;2022-10-23T01:51:19;101113.78;;;12.70;100.00
4972;BME280;2501;51.214;6.768;2022-10-23T01:53:51;101108.53;;;12.71;100.00
4972;BME280;2501;51.214;6.768;2022-10-23T01:56:32;101112.94;;;12.74;100.00
4972;BME280;2501;51.214;6.768;2022-10-23T01:59:08;101109.41;;;12.72;100.00
4972;BME280;2501;51.214;6.768;2022-10-23T02:01:40;101107.66;;;12.72;100.00
4972;BME280;2501;51.214;6.768;2022-10-23T02:04:29;101104.19;;;12.81;100.00
4972;BME280;2501;51.214;6.768;2022-10-23T02:07:04;101097.13;;;12.81;100.00
4972;BME280;2501;51.214;6.768;2022-10-23T02:09:39;101091.03;;;12.90;100.00
4972;BME280;2501;51.214;6.768;2022-10-23T02:12:21;101091.91;;;12.80;100.00
4972;BME280;2501;51.214;6.768;2022-10-23T02:15:25;101091.88;;;12.77;100.00
4972;BME280;2501;51.214;6.768;2022-10-23T02:18:29;101088.41;;;12.92;100.00
4972;BME280;2501;51.214;6.768;2022-10-23T02:21:16;101079.59;;;12.86;100.00
4972;BME280;2501;51.214;6.768;2022-10-23T02:24:28;101081.34;;;12.84;100.00
4972;BME280;2501;51.214;6.768;2022-10-23T02:27:10;101078.72;;;12.77;100.00
4972;BME280;2501;51.214;6.768;2022-10-23T02:29:42;101087.50;;;12.79;100.00
4972;BME280;2501;51.214;6.768;2022-10-23T02:32:16;101076.09;;;12.87;100.00
4972;BME280;2501;51.214;6.768;2022-10-23T02:34:46;101072.59;;;12.79;100.00
4972;BME280;2501;51.214;6.768;2022-10-23T02:37:15;101062.06;;;12.76;100.00
4972;BME280;2501;51.214;6.768;2022-10-23T02:39:43;101068.19;;;12.74;100.00
4972;BME280;2501;51.214;6.768;2022-10-23T02:42:16;101050.66;;;12.76;100.00
4972;BME280;2501;51.214;6.768;2022-10-23T02:44:54;101055.88;;;12.71;100.00
4972;BME280;2501;51.214;6.768;2022-10-23T02:47:39;101050.63;;;12.62;100.00
4972;BME280;2501;51.214;6.768;2022-10-23T02:50:20;101048.84;;;12.64;100.00
4972;BME280;2501;51.214;6.768;2022-10-23T02:52:57;101050.63;;;12.64;100.00
4972;BME280;2501;51.214;6.768;2022-10-23T02:55:33;101055.00;;;12.59;100.00
4972;BME280;2501;51.214;6.768;2022-10-23T02:58:07;101053.25;;;12.59;100.00
4972;BME280;2501;51.214;6.768;2022-10-23T03:00:41;101047.97;;;12.56;100.00
4972;BME280;2501;51.214;6.768;2022-10-23T03:03:18;101051.50;;;12.60;100.00
4972;BME280;2501;51.214;6.768;2022-10-23T03:05:47;101043.59;;;12.66;100.00
4972;BME280;2501;51.214;6.768;2022-10-23T03:08:15;101047.13;;;12.84;100.00
4972;BME280;2501;51.214;6.768;2022-10-23T03:10:43;101038.34;;;12.73;100.00
4972;BME280;2501;51.214;6.768;2022-10-23T03:13:12;101038.34;;;12.72;100.00
4972;BME280;2501;51.214;6.768;2022-10-23T03:15:40;101028.69;;;12.66;100.00
4972;BME280;2501;51.214;6.768;2022-10-23T03:18:09;101032.22;;;12.73;100.00
4972;BME280;2501;51.214;6.768;2022-10-23T03:20:40;101023.44;;;12.72;100.00
4972;BME280;2501;51.214;6.768;2022-10-23T03:23:10;101019.06;;;12.85;100.00
4972;BME280;2501;51.214;6.768;2022-10-23T03:25:39;101015.53;;;12.74;100.00
4972;BME280;2501;51.214;6.768;2022-10-23T03:28:08;101005.88;;;12.73;100.00
4972;BME280;2501;51.214;6.768;2022-10-23T03:30:36;101005.00;;;12.74;100.00
4972;BME280;2501;51.214;6.768;2022-10-23T03:33:04;101000.66;;;12.77;100.00
4972;BME280;2501;51.214;6.768;2022-10-23T03:35:33;100994.50;;;12.77;100.00
4972;BME280;2501;51.214;6.768;2022-10-23T03:38:04;100994.47;;;12.81;100.00
4972;BME280;2501;51.214;6.768;2022-10-23T03:40:33;100987.47;;;12.70;100.00
4972;BME280;2501;51.214;6.768;2022-10-23T03:43:01;100994.47;;;12.71;100.00
4972;BME280;2501;51.214;6.768;2022-10-23T03:45:29;100990.97;;;12.69;100.00
4972;BME280;2501;51.214;6.768;2022-10-23T03:47:58;100994.47;;;12.66;100.00
4972;BME280;2501;51.214;6.768;2022-10-23T03:50:26;101000.63;;;12.62;100.00
4972;BME280;2501;51.214;6.768;2022-10-23T03:52:55;101002.38;;;12.60;100.00
4972;BME280;2501;51.214;6.768;2022-10-23T03:55:26;101002.38;;;12.63;100.00
4972;BME280;2501;51.214;6.768;2022-10-23T03:57:54;101012.88;;;12.65;100.00
4972;BME280;2501;51.214;6.768;2022-10-23T04:00:23;101006.75;;;12.61;100.00
4972;BME280;2501;51.214;6.768;2022-10-23T04:02:51;101011.13;;;12.59;100.00
4972;BME280;2501;51.214;6.768;2022-10-23T04:05:19;101005.00;;;12.60;100.00
4972;BME280;2501;51.214;6.768;2022-10-23T04:07:48;101009.38;;;12.64;100.00
4972;BME280;2501;51.214;6.768;2022-10-23T04:10:16;100998.84;;;12.69;100.00
4972;BME280;2501;51.214;6.768;2022-10-23T04:12:48;101004.16;;;12.78;100.00
4972;BME280;2501;51.214;6.768;2022-10-23T04:15:16;100999.75;;;12.84;100.00
4972;BME280;2501;51.214;6.768;2022-10-23T04:17:44;100992.72;;;12.83;100.00
4972;BME280;2501;51.214;6.768;2022-10-23T04:20:13;100993.63;;;12.90;100.00
4972;BME280;2501;51.214;6.768;2022-10-23T04:22:42;100992.75;;;12.91;100.00
4972;BME280;2501;51.214;6.768;2022-10-23T04:25:10;100984.84;;;12.83;100.00
4972;BME280;2501;51.214;6.768;2022-10-23T04:27:38;100992.72;;;12.82;100.00
4972;BME280;2501;51.214;6.768;2022-10-23T04:30:11;100990.09;;;12.82;100.00
4972;BME280;2501;51.214;6.768;2022-10-23T04:32:39;100986.59;;;12.81;100.00
4972;BME280;2501;51.214;6.768;2022-10-23T04:35:08;100988.34;;;12.76;100.00
4972;BME280;2501;51.214;6.768;2022-10-23T04:37:36;100984.81;;;12.82;100.00
4972;BME280;2501;51.214;6.768;2022-10-23T04:40:06;100984.84;;;12.76;100.00
4972;BME280;2501;51.214;6.768;2022-10-23T04:42:34;100981.34;;;12.77;100.00
4972;BME280;2501;51.214;6.768;2022-10-23T04:45:04;100983.09;;;13.05;100.00
4972;BME280;2501;51.214;6.768;2022-10-23T04:47:35;100976.94;;;12.88;100.00
4972;BME280;2501;51.214;6.768;2022-10-23T04:53:14;100970.81;;;12.78;100.00
4972;BME280;2501;51.214;6.768;2022-10-23T04:55:47;100968.19;;;12.80;100.00
4972;BME280;2501;51.214;6.768;2022-10-23T04:58:16;100957.66;;;12.78;100.00
4972;BME280;2501;51.214;6.768;2022-10-23T05:00:45;100957.66;;;12.95;100.00
4972;BME280;2501;51.214;6.768;2022-10-23T05:03:17;100949.75;;;12.86;100.00
4972;BME280;2501;51.214;6.768;2022-10-23T05:05:46;100962.03;;;12.84;100.00
4972;BME280;2501;51.214;6.768;2022-10-23T05:08:15;100952.38;;;12.77;100.00
4972;BME280;2501;51.214;6.768;2022-10-23T05:10:43;100954.13;;;12.73;100.00
4972;BME280;2501;51.214;6.768;2022-10-23T05:13:12;100955.91;;;12.76;100.00
4972;BME280;2501;51.214;6.768;2022-10-23T05:15:40;100961.13;;;12.83;100.00
4972;BME280;2501;51.214;6.768;2022-10-23T05:18:10;100952.38;;;12.77;100.00
4972;BME280;2501;51.214;6.768;2022-10-23T05:20:44;100952.38;;;12.74;100.00
4972;BME280;2501;51.214;6.768;2022-10-23T05:23:14;100944.50;;;12.63;100.00
4972;BME280;2501;51.214;6.768;2022-10-23T05:25:43;100933.97;;;12.63;100.00
4972;BME280;2501;51.214;6.768;2022-10-23T05:28:12;100931.31;;;12.66;100.00
4972;BME280;2501;51.214;6.768;2022-10-23T05:30:41;100934.84;;;12.64;100.00
4972;BME280;2501;51.214;6.768;2022-10-23T05:33:10;100926.06;;;12.55;100.00
4972;BME280;2501;51.214;6.768;2022-10-23T05:35:39;100924.31;;;12.61;100.00
4972;BME280;2501;51.214;6.768;2022-10-23T05:38:12;100912.88;;;12.65;100.00
4972;BME280;2501;51.214;6.768;2022-10-23T05:40:41;100916.41;;;12.65;100.00
4972;BME280;2501;51.214;6.768;2022-10-23T05:43:10;100912.91;;;12.62;100.00
4972;BME280;2501;51.214;6.768;2022-10-23T05:45:38;100906.75;;;12.64;100.00
4972;BME280;2501;51.214;6.768;2022-10-23T05:48:06;100909.41;;;12.63;100.00
4972;BME280;2501;51.214;6.768;2022-10-23T05:50:36;100913.78;;;12.62;100.00
4972;BME280;2501;51.214;6.768;2022-10-23T05:53:04;100917.28;;;12.58;100.00
4972;BME280;2501;51.214;6.768;2022-10-23T05:55:35;100908.53;;;12.58;100.00
4972;BME280;2501;51.214;6.768;2022-10-23T05:58:04;100909.41;;;12.55;100.00
4972;BME280;2501;51.214;6.768;2022-10-23T06:00:32;100905.88;;;12.51;100.00
4972;BME280;2501;51.214;6.768;2022-10-23T06:03:01;100902.38;;;12.54;100.00
4972;BME280;2501;51.214;6.768;2022-10-23T06:05:29;100897.09;;;12.51;100.00
4972;BME280;2501;51.214;6.768;2022-10-23T06:07:58;100894.47;;;12.54;100.00
4972;BME280;2501;51.214;6.768;2022-10-23T06:10:27;100889.22;;;12.48;100.00
4972;BME280;2501;51.214;6.768;2022-10-23T06:12:58;100883.94;;;12.51;100.00
4972;BME280;2501;51.214;6.768;2022-10-23T06:15:27;100884.84;;;12.56;100.00
4972;BME280;2501;51.214;6.768;2022-10-23T06:17:59;100891.84;;;12.59;100.00
4972;BME280;2501;51.214;6.768;2022-10-23T06:20:34;100890.97;;;12.72;100.00
4972;BME280;2501;51.214;6.768;2022-10-23T06:23:02;100878.72;;;12.62;100.00
4972;BME280;2501;51.214;6.768;2022-10-23T06:25:31;100884.81;;;12.67;100.00
4972;BME280;2501;51.214;6.768;2022-10-23T06:28:02;100877.81;;;12.79;100.00
4972;BME280;2501;51.214;6.768;2022-10-23T06:30:31;100873.44;;;12.77;100.00
4972;BME280;2501;51.214;6.768;2022-10-23T06:33:00;100869.03;;;12.80;100.00
4972;BME280;2501;51.214;6.768;2022-10-23T06:35:28;100877.78;;;12.82;100.00
4972;BME280;2501;51.214;6.768;2022-10-23T06:37:57;100878.69;;;12.77;100.00
4972;BME280;2501;51.214;6.768;2022-10-23T06:40:26;100878.69;;;12.80;100.00
4972;BME280;2501;51.214;6.768;2022-10-23T06:42:55;100880.44;;;12.75;100.00
4972;BME280;2501;51.214;6.768;2022-10-23T06:45:26;100882.19;;;12.79;100.00
4972;BME280;2501;51.214;6.768;2022-10-23T06:47:57;100880.44;;;12.78;100.00
4972;BME280;2501;51.214;6.768;2022-10-23T06:50:25;100871.69;;;12.79;100.00
4972;BME280;2501;51.214;6.768;2022-10-23T06:52:55;100868.13;;;12.83;100.00
4972;BME280;2501;51.214;6.768;2022-10-23T06:55:23;100861.13;;;12.86;100.00
4972;BME280;2501;51.214;6.768;2022-10-23T06:57:52;100862.00;;;12.92;100.00
4972;BME280;2501;51.214;6.768;2022-10-23T07:00:21;100859.38;;;12.96;100.00
4972;BME280;2501;51.214;6.768;2022-10-23T07:02:55;100854.97;;;12.98;100.00
4972;BME280;2501;51.214;6.768;2022-10-23T07:05:23;100859.31;;;13.01;100.00
4972;BME280;2501;51.214;6.768;2022-10-23T07:07:52;100868.09;;;13.04;100.00
4972;BME280;2501;51.214;6.768;2022-10-23T07:10:20;100868.09;;;13.10;100.00
4972;BME280;2501;51.214;6.768;2022-10-23T07:12:48;100863.72;;;13.11;100.00
4972;BME280;2501;51.214;6.768;2022-10-23T07:15:17;100861.94;;;13.17;100.00
4972;BME280;2501;51.214;6.768;2022-10-23T07:17:45;100855.78;;;13.26;100.00
4972;BME280;2501;51.214;6.768;2022-10-23T07:20:16;100862.78;;;13.35;100.00
4972;BME280;2501;51.214;6.768;2022-10-23T07:22:49;100856.59;;;13.49;100.00
4972;BME280;2501;51.214;6.768;2022-10-23T07:25:19;100862.75;;;13.42;100.00
4972;BME280;2501;51.214;6.768;2022-10-23T07:27:58;100863.63;;;13.50;99.63
4972;BME280;2501;51.214;6.768;2022-10-23T07:30:30;100857.41;;;13.56;99.11
4972;BME280;2501;51.214;6.768;2022-10-23T07:32:59;100850.38;;;13.66;98.29
4972;BME280;2501;51.214;6.768;2022-10-23T07:35:31;100844.13;;;13.77;97.07
4972;BME280;2501;51.214;6.768;2022-10-23T07:38:00;100843.16;;;13.93;96.54
4972;BME280;2501;51.214;6.768;2022-10-23T07:40:28;100833.47;;;13.99;95.84
4972;BME280;2501;51.214;6.768;2022-10-23T07:42:56;100837.03;;;13.90;96.16
4972;BME280;2501;51.214;6.768;2022-10-23T07:45:25;100833.50;;;13.92;95.87
4972;BME280;2501;51.214;6.768;2022-10-23T07:47:53;100830.75;;;14.09;95.35
4972;BME280;2501;51.214;6.768;2022-10-23T07:50:21;100838.63;;;14.12;94.68
4972;BME280;2501;51.214;6.768;2022-10-23T07:52:52;100831.50;;;14.23;94.20
4972;BME280;2501;51.214;6.768;2022-10-23T07:55:23;100828.78;;;14.36;93.37
4972;BME280;2501;51.214;6.768;2022-10-23T07:57:51;100826.94;;;14.48;92.72
4972;BME280;2501;51.214;6.768;2022-10-23T08:00:20;100820.69;;;14.57;91.94
4972;BME280;2501;51.214;6.768;2022-10-23T08:02:48;100824.13;;;14.68;91.19
4972;BME280;2501;51.214;6.768;2022-10-23T08:05:17;100818.75;;;14.76;90.27
4972;BME280;2501;51.214;6.768;2022-10-23T08:07:46;100818.56;;;14.92;89.48
4972;BME280;2501;51.214;6.768;2022-10-23T08:10:17;100822.72;;;15.16;87.71
4972;BME280;2501;51.214;6.768;2022-10-23T08:12:46;100817.19;;;15.36;86.22
4972;BME280;2501;51.214;6.768;2022-10-23T08:15:15;100807.38;;;15.44;86.39
4972;BME280;2501;51.214;6.768;2022-10-23T08:17:43;100803.00;;;15.43;85.38
4972;BME280;2501;51.214;6.768;2022-10-23T08:20:12;100811.78;;;15.44;85.06
4972;BME280;2501;51.214;6.768;2022-10-23T08:22:41;100815.00;;;15.72;83.88
4972;BME280;2501;51.214;6.768;2022-10-23T08:25:09;100817.63;;;15.72;83.80
4972;BME280;2501;51.214;6.768;2022-10-23T08:27:40;100814.09;;;15.73;83.45
4972;BME280;2501;51.214;6.768;2022-10-23T08:30:10;100816.66;;;15.77;82.69
4972;BME280;2501;51.214;6.768;2022-10-23T08:32:39;100810.38;;;15.86;82.47
4972;BME280;2501;51.214;6.768;2022-10-23T08:35:08;100829.56;;;16.00;81.69
4972;BME280;2501;51.214;6.768;2022-10-23T08:37:37;100818.75;;;16.14;80.75
4972;BME280;2501;51.214;6.768;2022-10-23T08:40:06;100810.97;;;16.05;80.54
4972;BME280;2501;51.214;6.768;2022-10-23T08:42:40;100809.19;;;16.07;80.44
4972;BME280;2501;51.214;6.768;2022-10-23T08:45:20;100806.59;;;16.56;78.85
4972;BME280;2501;51.214;6.768;2022-10-23T08:48:08;100797.97;;;16.45;78.62
4972;BME280;2501;51.214;6.768;2022-10-23T08:50:44;100807.28;;;16.67;78.01
4972;BME280;2501;51.214;6.768;2022-10-23T08:53:19;100803.19;;;16.46;78.59
4972;BME280;2501;51.214;6.768;2022-10-23T08:55:56;100804.06;;;16.48;78.73
4972;BME280;2501;51.214;6.768;2022-10-23T08:58:34;100796.75;;;16.64;78.25
4972;BME280;2501;51.214;6.768;2022-10-23T09:01:24;100791.19;;;16.79;77.39
4972;BME280;2501;51.214;6.768;2022-10-23T09:03:56;100794.84;;;16.72;77.16
4972;BME280;2501;51.214;6.768;2022-10-23T09:06:30;100772.03;;;16.63;77.55
4972;BME280;2501;51.214;6.768;2022-10-23T09:09:14;100768.34;;;16.72;77.06
4972;BME280;2501;51.214;6.768;2022-10-23T09:11:52;100766.56;;;17.17;75.41
4972;BME280;2501;51.214;6.768;2022-10-23T09:14:44;100760.34;;;17.18;75.42
4972;BME280;2501;51.214;6.768;2022-10-23T09:17:22;100757.47;;;16.87;74.94
4972;BME280;2501;51.214;6.768;2022-10-23T09:19:58;100746.72;;;16.95;74.84
4972;BME280;2501;51.214;6.768;2022-10-23T09:22:28;100739.66;;;16.95;75.11
4972;BME280;2501;51.214;6.768;2022-10-23T09:24:56;100731.66;;;16.97;74.99
4972;BME280;2501;51.214;6.768;2022-10-23T09:27:24;100744.25;;;16.86;75.01
4972;BME280;2501;51.214;6.768;2022-10-23T09:29:55;100734.38;;;16.94;75.01
4972;BME280;2501;51.214;6.768;2022-10-23T09:32:34;100731.56;;;17.01;74.64
4972;BME280;2501;51.214;6.768;2022-10-23T09:35:05;100722.69;;;17.02;74.59
4972;BME280;2501;51.214;6.768;2022-10-23T09:37:34;100723.53;;;17.04;74.56
4972;BME280;2501;51.214;6.768;2022-10-23T09:40:16;100726.09;;;17.09;74.08
4972;BME280;2501;51.214;6.768;2022-10-23T09:42:57;100720.00;;;17.05;74.32
4972;BME280;2501;51.214;6.768;2022-10-23T09:45:32;100733.09;;;17.13;73.82
4972;BME280;2501;51.214;6.768;2022-10-23T09:48:10;100723.09;;;17.26;73.42
4972;BME280;2501;51.214;6.768;2022-10-23T09:50:47;100714.03;;;17.34;73.42
4972;BME280;2501;51.214;6.768;2022-10-23T09:53:19;100716.94;;;17.24;73.74
4972;BME280;2501;51.214;6.768;2022-10-23T09:55:52;100703.19;;;17.84;71.70
4972;BME280;2501;51.214;6.768;2022-10-23T09:58:26;100697.97;;;17.42;72.53
4972;BME280;2501;51.214;6.768;2022-10-23T10:01:01;100698.13;;;17.34;73.12
4972;BME280;2501;51.214;6.768;2022-10-23T10:03:31;100695.13;;;17.50;72.89
4972;BME280;2501;51.214;6.768;2022-10-23T10:06:01;100690.00;;;17.44;72.75
4972;BME280;2501;51.214;6.768;2022-10-23T10:08:39;100694.53;;;17.38;73.13
4972;BME280;2501;51.214;6.768;2022-10-23T10:11:15;100696.38;;;17.35;73.16
4972;BME280;2501;51.214;6.768;2022-10-23T10:14:15;100688.94;;;17.51;72.89
4972;BME280;2501;51.214;6.768;2022-10-23T10:16:52;100668.03;;;17.76;72.35
4972;BME280;2501;51.214;6.768;2022-10-23T10:19:38;100673.50;;;17.68;72.53
4972;BME280;2501;51.214;6.768;2022-10-23T10:22:23;100678.19;;;17.57;73.00
4972;BME280;2501;51.214;6.768;2022-10-23T10:24:57;100682.31;;;17.70;72.54
4972;BME280;2501;51.214;6.768;2022-10-23T10:27:41;100686.06;;;17.60;72.80
4972;BME280;2501;51.214;6.768;2022-10-23T10:30:14;100682.50;;;17.61;72.96
4972;BME280;2501;51.214;6.768;2022-10-23T10:32:52;100664.78;;;18.00;71.26
4972;BME280;2501;51.214;6.768;2022-10-23T10:35:25;100661.69;;;17.83;71.62
4972;BME280;2501;51.214;6.768;2022-10-23T10:41:21;100649.88;;;17.94;70.80
4972;BME280;2501;51.214;6.768;2022-10-23T10:44:04;100633.59;;;17.74;71.89
4972;BME280;2501;51.214;6.768;2022-10-23T10:46:45;100639.09;;;18.00;71.17
4972;BME280;2501;51.214;6.768;2022-10-23T10:49:26;100624.66;;;18.43;69.85
4972;BME280;2501;51.214;6.768;2022-10-23T10:52:03;100622.13;;;18.06;70.93
4972;BME280;2501;51.214;6.768;2022-10-23T10:54:46;100621.50;;;18.29;69.85
4972;BME280;2501;51.214;6.768;2022-10-23T10:57:29;100604.34;;;17.77;71.92
4972;BME280;2501;51.214;6.768;2022-10-23T11:00:00;100604.34;;;17.77;72.39
4972;BME280;2501;51.214;6.768;2022-10-23T11:02:34;100590.81;;;17.86;71.97
4972;BME280;2501;51.214;6.768;2022-10-23T11:05:17;100589.81;;;17.90;71.97
4972;BME280;2501;51.214;6.768;2022-10-23T11:07:53;100597.34;;;17.73;72.22
4972;BME280;2501;51.214;6.768;2022-10-23T11:10:22;100584.09;;;17.73;72.49
4972;BME280;2501;51.214;6.768;2022-10-23T11:12:51;100584.19;;;18.02;71.59
4972;BME280;2501;51.214;6.768;2022-10-23T11:15:23;100578.72;;;17.76;72.05
4972;BME280;2501;51.214;6.768;2022-10-23T11:17:55;100588.31;;;17.82;71.94
4972;BME280;2501;51.214;6.768;2022-10-23T11:20:47;100574.91;;;17.86;71.56
4972;BME280;2501;51.214;6.768;2022-10-23T11:23:39;100562.34;;;17.93;71.84
4972;BME280;2501;51.214;6.768;2022-10-23T11:26:28;100563.84;;;18.01;71.57
4972;BME280;2501;51.214;6.768;2022-10-23T11:29:16;100554.44;;;17.91;71.56
4972;BME280;2501;51.214;6.768;2022-10-23T11:31:58;100541.41;;;17.82;71.58
4972;BME280;2501;51.214;6.768;2022-10-23T11:34:41;100529.94;;;18.13;71.16
4972;BME280;2501;51.214;6.768;2022-10-23T11:37:20;100551.16;;;17.82;71.85
4972;BME280;2501;51.214;6.768;2022-10-23T11:40:15;100537.72;;;17.88;71.74
4972;BME280;2501;51.214;6.768;2022-10-23T11:42:47;100548.31;;;17.88;70.99
4972;BME280;2501;51.214;6.768;2022-10-23T11:45:33;100550.53;;;17.72;71.68
4972;BME280;2501;51.214;6.768;2022-10-23T11:48:04;100541.50;;;17.79;71.05
4972;BME280;2501;51.214;6.768;2022-10-23T11:50:49;100538.34;;;17.97;70.47
4972;BME280;2501;51.214;6.768;2022-10-23T11:53:37;100538.88;;;18.10;70.59
4972;BME280;2501;51.214;6.768;2022-10-23T11:56:25;100544.09;;;18.13;69.74
4972;BME280;2501;51.214;6.768;2022-10-23T11:58:57;100550.94;;;18.20;69.65
4972;BME280;2501;51.214;6.768;2022-10-23T12:01:34;100542.03;;;18.23;69.43
4972;BME280;2501;51.214;6.768;2022-10-23T12:04:16;100532.03;;;18.32;68.71
4972;BME280;2501;51.214;6.768;2022-10-23T12:06:50;100532.22;;;18.54;68.43
4972;BME280;2501;51.214;6.768;2022-10-23T12:09:40;100534.66;;;18.34;68.98
4972;BME280;2501;51.214;6.768;2022-10-23T12:12:16;100526.19;;;18.20;69.11
4972;BME280;2501;51.214;6.768;2022-10-23T12:14:53;100525.16;;;18.25;69.24
4972;BME280;2501;51.214;6.768;2022-10-23T12:17:35;100515.22;;;18.32;69.36
4972;BME280;2501;51.214;6.768;2022-10-23T12:20:27;100515.31;;;18.29;69.41
4972;BME280;2501;51.214;6.768;2022-10-23T12:23:06;100505.97;;;18.45;69.09
4972;BME280;2501;51.214;6.768;2022-10-23T12:25:54;100507.34;;;18.29;69.54
4972;BME280;2501;51.214;6.768;2022-10-23T12:28:32;100507.94;;;18.38;69.51
4972;BME280;2501;51.214;6.768;2022-10-23T12:31:19;100498.69;;;18.52;69.23
4972;BME280;2501;51.214;6.768;2022-10-23T12:33:58;100482.50;;;18.31;70.01
4972;BME280;2501;51.214;6.768;2022-10-23T12:36:46;100473.72;;;18.29;69.98
4972;BME280;2501;51.214;6.768;2022-10-23T12:39:27;100481.81;;;18.25;70.51
4972;BME280;2501;51.214;6.768;2022-10-23T12:41:59;100473.78;;;18.26;70.53
4972;BME280;2501;51.214;6.768;2022-10-23T12:44:28;100474.84;;;18.21;70.61
4972;BME280;2501;51.214;6.768;2022-10-23T12:46:59;100462.84;;;18.37;70.45
4972;BME280;2501;51.214;6.768;2022-10-23T12:49:30;100473.16;;;18.18;71.02
4972;BME280;2501;51.214;6.768;2022-10-23T12:52:01;100466.41;;;18.36;70.61
4972;BME280;2501;51.214;6.768;2022-10-23T12:54:37;100468.25;;;18.34;70.85
4972;BME280;2501;51.214;6.768;2022-10-23T12:57:26;100461.31;;;18.30;70.91
4972;BME280;2501;51.214;6.768;2022-10-23T13:00:30;100455.44;;;18.19;71.34
4972;BME280;2501;51.214;6.768;2022-10-23T13:03:01;100448.53;;;18.13;71.25
4972;BME280;2501;51.214;6.768;2022-10-23T13:05:54;100445.13;;;18.37;70.68
4972;BME280;2501;51.214;6.768;2022-10-23T13:08:51;100432.53;;;18.44;70.54
4972;BME280;2501;51.214;6.768;2022-10-23T13:11:22;100446.28;;;18.29;70.57
4972;BME280;2501;51.214;6.768;2022-10-23T13:13:55;100439.38;;;18.23;71.28
4972;BME280;2501;51.214;6.768;2022-10-23T13:16:25;100435.72;;;18.27;71.41
4972;BME280;2501;51.214;6.768;2022-10-23T13:18:53;100426.41;;;18.14;72.03
4972;BME280;2501;51.214;6.768;2022-10-23T13:21:23;100408.28;;;18.27;71.55
4972;BME280;2501;51.214;6.768;2022-10-23T13:23:53;100402.47;;;18.16;71.77
4972;BME280;2501;51.214;6.768;2022-10-23T13:26:29;100398.28;;;18.07;72.18
4972;BME280;2501;51.214;6.768;2022-10-23T13:29:01;100390.44;;;18.32;71.51
4972;BME280;2501;51.214;6.768;2022-10-23T13:31:31;100391.09;;;18.11;72.49
4972;BME280;2501;51.214;6.768;2022-10-23T13:34:11;100385.56;;;18.18;71.77
4972;BME280;2501;51.214;6.768;2022-10-23T13:36:52;100382.50;;;18.02;72.53
4972;BME280;2501;51.214;6.768;2022-10-23T13:39:22;100379.84;;;18.02;72.87
4972;BME280;2501;51.214;6.768;2022-10-23T13:41:52;100377.19;;;18.02;73.24
4972;BME280;2501;51.214;6.768;2022-10-23T13:44:23;100371.03;;;18.30;72.22
4972;BME280;2501;51.214;6.768;2022-10-23T13:46:52;100365.63;;;18.05;72.54
4972;BME280;2501;51.214;6.768;2022-10-23T13:49:20;100370.84;;;18.08;73.05